sensor_id;sensor_type;location;lat;lon;timestamp;pressure;altitude;pressure_sealevel;temperature;humidity
82293;BME280;71892;14.836;105.234;2023-10-09T00:02:08;99654.69;;;25.65;nan
82293;BME280;71892;14.836;105.234;2023-10-09T00:04:35;99655.03;;;25.76;nan
82293;BME280;71892;14.836;105.234;2023-10-09T00:07:07;99630.75;;;25.90;nan
82293;BME280;71892;14.836;105.234;2023-10-09T00:14:42;99658.50;;;26.15;nan
82293;BME280;71892;14.836;105.234;2023-10-09T00:17:18;99666.91;;;26.11;nan
82293;BME280;71892;14.836;105.234;2023-10-09T00:19:45;99673.09;;;26.14;nan
82293;BME280;71892;14.836;105.234;2023-10-09T00:22:18;99668.75;;;26.10;nan
82293;BME280;71892;14.836;105.234;2023-10-09T00:24:50;99679.59;;;26.12;nan
82293;BME280;71892;14.836;105.234;2023-10-09T00:27:39;99679.34;;;26.16;nan
82293;BME280;71892;14.836;105.234;2023-10-09T00:30:13;99669.28;;;26.18;nan
82293;BME280;71892;14.836;105.234;2023-10-09T00:32:55;99675.47;;;26.22;nan
82293;BME280;71892;14.836;105.234;2023-10-09T00:35:26;99675.47;;;26.22;nan
82293;BME280;71892;14.836;105.234;2023-10-09T00:38:20;99693.78;;;26.37;nan
82293;BME280;71892;14.836;105.234;2023-10-09T00:40:47;99692.22;;;26.67;nan
82293;BME280;71892;14.836;105.234;2023-10-09T00:43:22;99695.81;;;27.02;nan
82293;BME280;71892;14.836;105.234;2023-10-09T00:45:57;99693.06;;;27.19;nan
82293;BME280;71892;14.836;105.234;2023-10-09T00:48:45;99706.59;;;27.21;nan
82293;BME280;71892;14.836;105.234;2023-10-09T00:51:15;99701.06;;;27.22;nan
82293;BME280;71892;14.836;105.234;2023-10-09T00:53:49;99704.75;;;27.39;nan
82293;BME280;71892;14.836;105.234;2023-10-09T00:56:21;99706.91;;;27.65;nan
82293;BME280;71892;14.836;105.234;2023-10-09T00:58:56;99708.38;;;28.19;nan
82293;BME280;71892;14.836;105.234;2023-10-09T01:01:35;99709.88;;;28.40;nan
82293;BME280;71892;14.836;105.234;2023-10-09T01:04:06;99676.78;;;28.45;nan
82293;BME280;71892;14.836;105.234;2023-10-09T01:06:45;99708.47;;;28.18;nan
82293;BME280;71892;14.836;105.234;2023-10-09T01:09:14;99697.53;;;28.02;nan
82293;BME280;71892;14.836;105.234;2023-10-09T01:11:45;99712.06;;;28.02;nan
82293;BME280;71892;14.836;105.234;2023-10-09T01:14:30;99719.75;;;28.27;nan
82293;BME280;71892;14.836;105.234;2023-10-09T01:17:02;99717.38;;;28.67;nan
82293;BME280;71892;14.836;105.234;2023-10-09T01:19:34;99727.91;;;28.74;nan
82293;BME280;71892;14.836;105.234;2023-10-09T01:22:00;99719.91;;;28.85;nan
82293;BME280;71892;14.836;105.234;2023-10-09T01:24:40;99723.63;;;29.28;nan
82293;BME280;71892;14.836;105.234;2023-10-09T01:27:08;99722.81;;;29.56;nan
82293;BME280;71892;14.836;105.234;2023-10-09T01:29:41;99705.75;;;30.35;nan
82293;BME280;71892;14.836;105.234;2023-10-09T01:32:08;99722.53;;;30.30;nan
82293;BME280;71892;14.836;105.234;2023-10-09T01:34:44;99731.47;;;30.19;nan
82293;BME280;71892;14.836;105.234;2023-10-09T01:37:15;99729.84;;;29.89;nan
82293;BME280;71892;14.836;105.234;2023-10-09T01:39:58;99741.69;;;29.61;nan
82293;BME280;71892;14.836;105.234;2023-10-09T01:42:41;99726.50;;;29.41;nan
82293;BME280;71892;14.836;105.234;2023-10-09T01:45:12;99735.28;;;28.88;nan
82293;BME280;71892;14.836;105.234;2023-10-09T01:47:58;99732.84;;;28.68;nan
82293;BME280;71892;14.836;105.234;2023-10-09T01:50:30;99725.34;;;28.71;nan
82293;BME280;71892;14.836;105.234;2023-10-09T01:52:57;99730.53;;;28.76;nan
82293;BME280;71892;14.836;105.234;2023-10-09T01:55:30;99738.59;;;28.79;nan
82293;BME280;71892;14.836;105.234;2023-10-09T01:58:06;99718.47;;;28.80;nan
82293;BME280;71892;14.836;105.234;2023-10-09T02:00:48;99744.41;;;28.73;nan
82293;BME280;71892;14.836;105.234;2023-10-09T02:03:20;99746.97;;;28.60;nan
82293;BME280;71892;14.836;105.234;2023-10-09T02:05:51;99745.56;;;28.53;nan
82293;BME280;71892;14.836;105.234;2023-10-09T02:08:29;99723.69;;;28.53;nan
82293;BME280;71892;14.836;105.234;2023-10-09T02:10:56;99739.50;;;28.48;nan
82293;BME280;71892;14.836;105.234;2023-10-09T02:13:23;99745.50;;;28.55;nan
82293;BME280;71892;14.836;105.234;2023-10-09T02:15:57;99758.47;;;28.51;nan
82293;BME280;71892;14.836;105.234;2023-10-09T02:18:39;99749.81;;;28.43;nan
82293;BME280;71892;14.836;105.234;2023-10-09T02:21:07;99756.38;;;28.40;nan
82293;BME280;71892;14.836;105.234;2023-10-09T02:23:35;99752.75;;;28.40;nan
82293;BME280;71892;14.836;105.234;2023-10-09T02:26:19;99760.94;;;28.40;nan
82293;BME280;71892;14.836;105.234;2023-10-09T02:28:55;99765.72;;;28.21;nan
82293;BME280;71892;14.836;105.234;2023-10-09T02:31:26;99761.13;;;28.21;nan
82293;BME280;71892;14.836;105.234;2023-10-09T02:34:01;99767.50;;;28.22;nan
82293;BME280;71892;14.836;105.234;2023-10-09T02:36:31;99763.41;;;28.29;nan
82293;BME280;71892;14.836;105.234;2023-10-09T02:38:57;99760.94;;;28.40;nan
82293;BME280;71892;14.836;105.234;2023-10-09T02:41:24;99757.13;;;28.42;nan
82293;BME280;71892;14.836;105.234;2023-10-09T02:43:54;99759.25;;;28.53;nan
82293;BME280;71892;14.836;105.234;2023-10-09T02:46:22;99764.09;;;28.64;nan
82293;BME280;71892;14.836;105.234;2023-10-09T02:48:59;99763.06;;;28.50;nan
82293;BME280;71892;14.836;105.234;2023-10-09T02:51:30;99769.69;;;28.46;nan
82293;BME280;71892;14.836;105.234;2023-10-09T02:54:07;99762.94;;;28.52;nan
82293;BME280;71892;14.836;105.234;2023-10-09T02:56:51;99760.06;;;28.39;nan
82293;BME280;71892;14.836;105.234;2023-10-09T02:59:21;99754.09;;;28.17;nan
82293;BME280;71892;14.836;105.234;2023-10-09T03:01:49;99753.72;;;28.39;nan
82293;BME280;71892;14.836;105.234;2023-10-09T03:04:18;99749.47;;;28.49;nan
82293;BME280;71892;14.836;105.234;2023-10-09T03:06:45;99731.78;;;28.70;nan
82293;BME280;71892;14.836;105.234;2023-10-09T03:09:20;99741.13;;;28.82;nan
82293;BME280;71892;14.836;105.234;2023-10-09T03:11:55;99735.81;;;28.94;nan
82293;BME280;71892;14.836;105.234;2023-10-09T03:14:31;99734.22;;;29.34;nan
82293;BME280;71892;14.836;105.234;2023-10-09T03:17:01;99731.22;;;29.82;nan
82293;BME280;71892;14.836;105.234;2023-10-09T03:19:29;99710.09;;;30.51;nan
82293;BME280;71892;14.836;105.234;2023-10-09T03:21:56;99710.88;;;31.70;nan
82293;BME280;71892;14.836;105.234;2023-10-09T03:24:26;99715.91;;;32.49;nan
82293;BME280;71892;14.836;105.234;2023-10-09T03:26:59;99712.81;;;32.54;nan
82293;BME280;71892;14.836;105.234;2023-10-09T03:29:26;99708.44;;;32.51;nan
82293;BME280;71892;14.836;105.234;2023-10-09T03:31:55;99713.34;;;32.35;nan
82293;BME280;71892;14.836;105.234;2023-10-09T03:34:23;99703.91;;;31.90;nan
82293;BME280;71892;14.836;105.234;2023-10-09T03:36:54;99700.06;;;31.67;nan
82293;BME280;71892;14.836;105.234;2023-10-09T03:39:47;99691.50;;;31.72;nan
82293;BME280;71892;14.836;105.234;2023-10-09T03:42:14;99697.56;;;31.64;nan
82293;BME280;71892;14.836;105.234;2023-10-09T03:44:48;99688.91;;;32.54;nan
82293;BME280;71892;14.836;105.234;2023-10-09T03:47:23;99682.19;;;33.17;nan
82293;BME280;71892;14.836;105.234;2023-10-09T03:49:50;99685.72;;;33.30;nan
82293;BME280;71892;14.836;105.234;2023-10-09T03:52:19;99686.22;;;33.24;nan
82293;BME280;71892;14.836;105.234;2023-10-09T03:54:46;99675.78;;;33.16;nan
82293;BME280;71892;14.836;105.234;2023-10-09T03:57:13;99668.63;;;33.14;nan
82293;BME280;71892;14.836;105.234;2023-10-09T03:59:48;99669.94;;;32.62;nan
82293;BME280;71892;14.836;105.234;2023-10-09T04:02:17;99664.63;;;31.88;nan
82293;BME280;71892;14.836;105.234;2023-10-09T04:04:44;99674.47;;;31.16;nan
82293;BME280;71892;14.836;105.234;2023-10-09T04:07:13;99657.94;;;30.91;nan
82293;BME280;71892;14.836;105.234;2023-10-09T04:09:44;99657.38;;;30.86;nan
82293;BME280;71892;14.836;105.234;2023-10-09T04:12:36;99647.28;;;30.86;nan
82293;BME280;71892;14.836;105.234;2023-10-09T04:15:05;99651.41;;;30.67;nan
82293;BME280;71892;14.836;105.234;2023-10-09T04:17:41;99647.13;;;31.27;nan
82293;BME280;71892;14.836;105.234;2023-10-09T04:20:09;99647.06;;;31.52;nan
82293;BME280;71892;14.836;105.234;2023-10-09T04:22:45;99640.31;;;31.95;nan
82293;BME280;71892;14.836;105.234;2023-10-09T04:25:26;99631.28;;;32.29;nan
82293;BME280;71892;14.836;105.234;2023-10-09T04:27:57;99626.88;;;32.96;nan
82293;BME280;71892;14.836;105.234;2023-10-09T04:30:45;99621.69;;;33.27;nan
82293;BME280;71892;14.836;105.234;2023-10-09T04:33:13;99541.19;;;33.77;nan
82293;BME280;71892;14.836;105.234;2023-10-09T04:36:06;99613.91;;;33.76;nan
82293;BME280;71892;14.836;105.234;2023-10-09T04:38:55;99614.50;;;34.45;nan
82293;BME280;71892;14.836;105.234;2023-10-09T04:41:28;99604.84;;;34.71;nan
82293;BME280;71892;14.836;105.234;2023-10-09T04:43:59;99595.50;;;34.31;nan
82293;BME280;71892;14.836;105.234;2023-10-09T04:46:47;99599.53;;;34.27;nan
82293;BME280;71892;14.836;105.234;2023-10-09T04:49:34;99589.16;;;34.08;nan
82293;BME280;71892;14.836;105.234;2023-10-09T04:52:28;99587.03;;;34.64;nan
82293;BME280;71892;14.836;105.234;2023-10-09T04:54:55;99585.78;;;34.89;nan
82293;BME280;71892;14.836;105.234;2023-10-09T04:57:31;99568.75;;;34.52;nan
82293;BME280;71892;14.836;105.234;2023-10-09T05:00:05;99569.22;;;34.68;nan
82293;BME280;71892;14.836;105.234;2023-10-09T05:03:01;99566.75;;;34.96;nan
82293;BME280;71892;14.836;105.234;2023-10-09T05:05:53;99567.56;;;34.86;nan
82293;BME280;71892;14.836;105.234;2023-10-09T05:08:26;99559.63;;;34.93;nan
82293;BME280;71892;14.836;105.234;2023-10-09T05:10:58;99554.56;;;34.36;nan
82293;BME280;71892;14.836;105.234;2023-10-09T05:13:25;99544.22;;;33.63;nan
82293;BME280;71892;14.836;105.234;2023-10-09T05:16:14;99552.78;;;33.27;nan
82293;BME280;71892;14.836;105.234;2023-10-09T05:18:45;99546.03;;;33.19;nan
82293;BME280;71892;14.836;105.234;2023-10-09T05:24:03;99544.88;;;33.44;nan
82293;BME280;71892;14.836;105.234;2023-10-09T05:26:47;99539.81;;;33.60;nan
82293;BME280;71892;14.836;105.234;2023-10-09T05:29:20;99535.56;;;33.79;nan
82293;BME280;71892;14.836;105.234;2023-10-09T05:32:00;99531.13;;;33.87;nan
82293;BME280;71892;14.836;105.234;2023-10-09T05:34:31;99530.03;;;34.22;nan
82293;BME280;71892;14.836;105.234;2023-10-09T05:37:06;99521.00;;;34.20;nan
82293;BME280;71892;14.836;105.234;2023-10-09T05:39:55;99518.88;;;33.80;nan
82293;BME280;71892;14.836;105.234;2023-10-09T05:42:28;99502.94;;;33.30;nan
82293;BME280;71892;14.836;105.234;2023-10-09T05:45:17;99496.16;;;33.00;nan
82293;BME280;71892;14.836;105.234;2023-10-09T05:47:48;99477.66;;;32.45;nan
82293;BME280;71892;14.836;105.234;2023-10-09T05:50:25;99480.25;;;32.24;nan
82293;BME280;71892;14.836;105.234;2023-10-09T05:52:58;99466.50;;;32.01;nan
82293;BME280;71892;14.836;105.234;2023-10-09T05:55:28;99423.69;;;32.09;nan
82293;BME280;71892;14.836;105.234;2023-10-09T05:58:13;99454.41;;;32.38;nan
82293;BME280;71892;14.836;105.234;2023-10-09T06:00:46;99470.81;;;32.51;nan
82293;BME280;71892;14.836;105.234;2023-10-09T06:03:31;99459.31;;;32.68;nan
82293;BME280;71892;14.836;105.234;2023-10-09T06:06:23;99422.78;;;32.88;nan
82293;BME280;71892;14.836;105.234;2023-10-09T06:09:08;99457.81;;;32.97;nan
82293;BME280;71892;14.836;105.234;2023-10-09T06:11:48;99446.78;;;33.08;nan
82293;BME280;71892;14.836;105.234;2023-10-09T06:14:19;99446.28;;;33.14;nan
82293;BME280;71892;14.836;105.234;2023-10-09T06:17:12;99439.16;;;33.34;nan
82293;BME280;71892;14.836;105.234;2023-10-09T06:19:53;99438.25;;;33.45;nan
82293;BME280;71892;14.836;105.234;2023-10-09T06:22:25;99422.50;;;33.25;nan
82293;BME280;71892;14.836;105.234;2023-10-09T06:25:23;99417.97;;;33.35;nan
82293;BME280;71892;14.836;105.234;2023-10-09T06:27:59;99414.06;;;33.37;nan
82293;BME280;71892;14.836;105.234;2023-10-09T06:30:25;99418.38;;;33.19;nan
82293;BME280;71892;14.836;105.234;2023-10-09T06:32:53;99411.63;;;32.90;nan
82293;BME280;71892;14.836;105.234;2023-10-09T06:35:28;99401.88;;;32.74;nan
82293;BME280;71892;14.836;105.234;2023-10-09T06:37:59;99402.84;;;32.40;nan
82293;BME280;71892;14.836;105.234;2023-10-09T06:43:13;99384.09;;;30.69;nan
82293;BME280;71892;14.836;105.234;2023-10-09T06:45:54;99404.16;;;30.32;nan
82293;BME280;71892;14.836;105.234;2023-10-09T06:48:27;99386.19;;;29.90;nan
82293;BME280;71892;14.836;105.234;2023-10-09T06:51:04;99408.66;;;29.28;nan
82293;BME280;71892;14.836;105.234;2023-10-09T06:53:49;99391.38;;;28.87;nan
82293;BME280;71892;14.836;105.234;2023-10-09T06:56:24;99387.78;;;28.58;nan
82293;BME280;71892;14.836;105.234;2023-10-09T07:02:31;99369.44;;;27.59;nan
82293;BME280;71892;14.836;105.234;2023-10-09T07:05:11;99317.41;;;27.17;nan
82293;BME280;71892;14.836;105.234;2023-10-09T07:11:16;99373.63;;;26.90;nan
82293;BME280;71892;14.836;105.234;2023-10-09T07:14:14;99366.56;;;26.86;nan
82293;BME280;71892;14.836;105.234;2023-10-09T07:19:24;99364.97;;;26.81;nan
82293;BME280;71892;14.836;105.234;2023-10-09T07:22:12;99362.91;;;26.87;nan
82293;BME280;71892;14.836;105.234;2023-10-09T07:25:02;99368.31;;;27.02;nan
82293;BME280;71892;14.836;105.234;2023-10-09T07:27:40;99360.03;;;27.19;nan
82293;BME280;71892;14.836;105.234;2023-10-09T07:30:19;99341.94;;;27.33;nan
82293;BME280;71892;14.836;105.234;2023-10-09T07:35:38;99350.25;;;27.45;nan
82293;BME280;71892;14.836;105.234;2023-10-09T07:38:12;99354.50;;;27.51;nan
82293;BME280;71892;14.836;105.234;2023-10-09T07:40:41;99350.91;;;27.64;nan
82293;BME280;71892;14.836;105.234;2023-10-09T07:43:29;99349.78;;;27.83;nan
82293;BME280;71892;14.836;105.234;2023-10-09T07:46:09;99351.16;;;27.90;nan
82293;BME280;71892;14.836;105.234;2023-10-09T07:48:59;99353.78;;;28.05;nan
82293;BME280;71892;14.836;105.234;2023-10-09T07:51:36;99363.75;;;28.06;nan
82293;BME280;71892;14.836;105.234;2023-10-09T07:54:03;99354.69;;;28.06;nan
82293;BME280;71892;14.836;105.234;2023-10-09T07:56:37;99353.50;;;28.10;nan
82293;BME280;71892;14.836;105.234;2023-10-09T07:59:19;99347.75;;;28.29;nan
82293;BME280;71892;14.836;105.234;2023-10-09T08:01:50;99350.09;;;28.49;nan
82293;BME280;71892;14.836;105.234;2023-10-09T08:04:40;99361.22;;;28.74;nan
82293;BME280;71892;14.836;105.234;2023-10-09T08:07:16;99356.47;;;28.90;nan
82293;BME280;71892;14.836;105.234;2023-10-09T08:09:46;99361.03;;;29.04;nan
82293;BME280;71892;14.836;105.234;2023-10-09T08:12:16;99353.56;;;29.06;nan
82293;BME280;71892;14.836;105.234;2023-10-09T08:15:02;99349.34;;;29.15;nan
82293;BME280;71892;14.836;105.234;2023-10-09T08:17:41;99346.47;;;29.30;nan
82293;BME280;71892;14.836;105.234;2023-10-09T08:20:14;99347.28;;;29.45;nan
82293;BME280;71892;14.836;105.234;2023-10-09T08:22:43;99344.75;;;29.55;nan
82293;BME280;71892;14.836;105.234;2023-10-09T08:25:16;99345.09;;;29.63;nan
82293;BME280;71892;14.836;105.234;2023-10-09T08:28:03;99344.75;;;29.55;nan
82293;BME280;71892;14.836;105.234;2023-10-09T08:30:48;99326.00;;;29.49;nan
82293;BME280;71892;14.836;105.234;2023-10-09T08:33:35;99347.84;;;29.63;nan
82293;BME280;71892;14.836;105.234;2023-10-09T08:36:11;99344.09;;;29.51;nan
82293;BME280;71892;14.836;105.234;2023-10-09T08:38:41;99335.88;;;29.51;nan
82293;BME280;71892;14.836;105.234;2023-10-09T08:43:50;99325.34;;;29.45;nan
82293;BME280;71892;14.836;105.234;2023-10-09T08:46:24;99328.19;;;29.44;nan
82293;BME280;71892;14.836;105.234;2023-10-09T08:48:57;99324.03;;;29.38;nan
82293;BME280;71892;14.836;105.234;2023-10-09T08:51:26;99315.81;;;29.38;nan
82293;BME280;71892;14.836;105.234;2023-10-09T08:53:54;99325.22;;;29.34;nan
82293;BME280;71892;14.836;105.234;2023-10-09T08:56:22;99324.47;;;29.32;nan
82293;BME280;71892;14.836;105.234;2023-10-09T08:58:58;99325.47;;;29.17;nan
82293;BME280;71892;14.836;105.234;2023-10-09T09:01:28;99332.00;;;29.02;nan
82293;BME280;71892;14.836;105.234;2023-10-09T09:03:58;99333.75;;;29.03;nan
82293;BME280;71892;14.836;105.234;2023-10-09T09:06:26;99341.00;;;29.04;nan
82293;BME280;71892;14.836;105.234;2023-10-09T09:08:53;99343.81;;;29.02;nan
82293;BME280;71892;14.836;105.234;2023-10-09T09:11:25;99349.91;;;28.93;nan
82293;BME280;71892;14.836;105.234;2023-10-09T09:14:00;99350.69;;;28.95;nan
82293;BME280;71892;14.836;105.234;2023-10-09T09:16:41;99342.38;;;28.97;nan
82293;BME280;71892;14.836;105.234;2023-10-09T09:19:14;99339.13;;;29.04;nan
82293;BME280;71892;14.836;105.234;2023-10-09T09:21:52;99320.16;;;29.01;nan
82293;BME280;71892;14.836;105.234;2023-10-09T09:24:22;99332.41;;;28.95;nan
82293;BME280;71892;14.836;105.234;2023-10-09T09:26:50;99333.09;;;28.99;nan
82293;BME280;71892;14.836;105.234;2023-10-09T09:29:39;99331.31;;;28.98;nan
82293;BME280;71892;14.836;105.234;2023-10-09T09:32:08;99326.75;;;28.99;nan
82293;BME280;71892;14.836;105.234;2023-10-09T09:34:50;99333.97;;;29.00;nan
82293;BME280;71892;14.836;105.234;2023-10-09T09:37:32;99322.00;;;29.01;nan
82293;BME280;71892;14.836;105.234;2023-10-09T09:40:05;99325.88;;;29.11;nan
82293;BME280;71892;14.836;105.234;2023-10-09T09:42:52;99319.28;;;29.01;nan
82293;BME280;71892;14.836;105.234;2023-10-09T09:45:23;99326.47;;;28.89;nan
82293;BME280;71892;14.836;105.234;2023-10-09T09:47:52;99328.16;;;28.77;nan
82293;BME280;71892;14.836;105.234;2023-10-09T09:50:19;99333.06;;;28.72;nan
82293;BME280;71892;14.836;105.234;2023-10-09T09:52:54;99321.63;;;28.66;nan
82293;BME280;71892;14.836;105.234;2023-10-09T09:55:26;99305.63;;;28.60;nan
82293;BME280;71892;14.836;105.234;2023-10-09T09:57:58;99325.38;;;28.50;nan
82293;BME280;71892;14.836;105.234;2023-10-09T10:00:33;99317.97;;;28.38;nan
82293;BME280;71892;14.836;105.234;2023-10-09T10:03:17;99323.94;;;28.31;nan
82293;BME280;71892;14.836;105.234;2023-10-09T10:05:46;99317.91;;;28.26;nan
82293;BME280;71892;14.836;105.234;2023-10-09T10:08:20;99318.06;;;28.23;nan
82293;BME280;71892;14.836;105.234;2023-10-09T10:10:49;99318.59;;;28.15;nan
82293;BME280;71892;14.836;105.234;2023-10-09T10:16:12;99300.25;;;28.17;nan
82293;BME280;71892;14.836;105.234;2023-10-09T10:18:58;99337.06;;;28.12;nan
82293;BME280;71892;14.836;105.234;2023-10-09T10:21:38;99333.56;;;28.08;nan
82293;BME280;71892;14.836;105.234;2023-10-09T10:35:22;99352.66;;;27.65;nan
82293;BME280;71892;14.836;105.234;2023-10-09T10:37:59;99355.69;;;27.61;nan
82293;BME280;71892;14.836;105.234;2023-10-09T10:40:34;99360.66;;;27.54;nan
82293;BME280;71892;14.836;105.234;2023-10-09T10:46:06;99355.91;;;27.42;nan
82293;BME280;71892;14.836;105.234;2023-10-09T10:48:59;99306.06;;;27.39;nan
82293;BME280;71892;14.836;105.234;2023-10-09T10:51:35;99350.03;;;27.34;nan
82293;BME280;71892;14.836;105.234;2023-10-09T10:54:07;99353.13;;;27.28;nan
82293;BME280;71892;14.836;105.234;2023-10-09T10:56:52;99353.69;;;27.19;nan
82293;BME280;71892;14.836;105.234;2023-10-09T10:59:22;99355.81;;;27.14;nan
82293;BME280;71892;14.836;105.234;2023-10-09T11:01:50;99355.41;;;27.06;nan
82293;BME280;71892;14.836;105.234;2023-10-09T11:04:40;99353.78;;;27.02;nan
82293;BME280;71892;14.836;105.234;2023-10-09T11:07:10;99363.94;;;27.00;nan
82293;BME280;71892;14.836;105.234;2023-10-09T11:09:48;99367.63;;;26.99;nan
82293;BME280;71892;14.836;105.234;2023-10-09T11:12:44;99361.38;;;26.97;nan
82293;BME280;71892;14.836;105.234;2023-10-09T11:15:35;99362.38;;;26.96;nan
82293;BME280;71892;14.836;105.234;2023-10-09T11:18:13;99356.19;;;26.92;nan
82293;BME280;71892;14.836;105.234;2023-10-09T11:20:49;99365.38;;;26.91;nan
82293;BME280;71892;14.836;105.234;2023-10-09T11:23:32;99365.53;;;26.88;nan
82293;BME280;71892;14.836;105.234;2023-10-09T11:26:00;99378.41;;;26.86;nan
82293;BME280;71892;14.836;105.234;2023-10-09T11:28:45;99378.41;;;26.86;nan
82293;BME280;71892;14.836;105.234;2023-10-09T11:31:25;99378.13;;;26.91;nan
82293;BME280;71892;14.836;105.234;2023-10-09T11:33:52;99381.88;;;26.88;nan
82293;BME280;71892;14.836;105.234;2023-10-09T11:36:23;99379.09;;;26.90;nan
82293;BME280;71892;14.836;105.234;2023-10-09T11:38:59;99309.28;;;26.86;nan
82293;BME280;71892;14.836;105.234;2023-10-09T11:41:48;99387.84;;;26.79;nan
82293;BME280;71892;14.836;105.234;2023-10-09T11:44:35;99394.25;;;26.78;nan
82293;BME280;71892;14.836;105.234;2023-10-09T11:47:06;99390.75;;;26.76;nan
82293;BME280;71892;14.836;105.234;2023-10-09T11:50:02;99400.09;;;26.72;nan
82293;BME280;71892;14.836;105.234;2023-10-09T11:52:32;99396.75;;;26.67;nan
82293;BME280;71892;14.836;105.234;2023-10-09T11:55:02;99396.13;;;26.62;nan
82293;BME280;71892;14.836;105.234;2023-10-09T11:57:30;99393.66;;;26.57;nan
82293;BME280;71892;14.836;105.234;2023-10-09T11:59:58;99396.66;;;26.53;nan
82293;BME280;71892;14.836;105.234;2023-10-09T12:02:26;99384.06;;;26.50;nan
82293;BME280;71892;14.836;105.234;2023-10-09T12:04:54;99411.50;;;26.47;nan
82293;BME280;71892;14.836;105.234;2023-10-09T12:07:24;99413.41;;;26.45;nan
82293;BME280;71892;14.836;105.234;2023-10-09T12:09:51;99418.00;;;26.45;nan
82293;BME280;71892;14.836;105.234;2023-10-09T12:12:22;99398.91;;;26.45;nan
82293;BME280;71892;14.836;105.234;2023-10-09T12:14:53;99361.81;;;26.42;nan
82293;BME280;71892;14.836;105.234;2023-10-09T12:17:19;99437.34;;;26.40;nan
82293;BME280;71892;14.836;105.234;2023-10-09T12:19:50;99440.13;;;26.38;nan
82293;BME280;71892;14.836;105.234;2023-10-09T12:22:17;99446.66;;;26.36;nan
82293;BME280;71892;14.836;105.234;2023-10-09T12:24:47;99448.41;;;26.37;nan
82293;BME280;71892;14.836;105.234;2023-10-09T12:27:14;99419.41;;;26.36;nan
82293;BME280;71892;14.836;105.234;2023-10-09T12:29:46;99455.72;;;26.36;nan
82293;BME280;71892;14.836;105.234;2023-10-09T12:32:14;99461.25;;;26.35;nan
82293;BME280;71892;14.836;105.234;2023-10-09T12:34:45;99463.19;;;26.33;nan
82293;BME280;71892;14.836;105.234;2023-10-09T12:37:16;99471.69;;;26.27;nan
82293;BME280;71892;14.836;105.234;2023-10-09T12:39:46;99465.66;;;26.20;nan
82293;BME280;71892;14.836;105.234;2023-10-09T12:42:13;99483.94;;;26.18;nan
82293;BME280;71892;14.836;105.234;2023-10-09T12:44:42;99477.50;;;26.19;nan
82293;BME280;71892;14.836;105.234;2023-10-09T12:47:10;99487.06;;;26.11;nan
82293;BME280;71892;14.836;105.234;2023-10-09T12:49:39;99492.75;;;26.06;nan
82293;BME280;71892;14.836;105.234;2023-10-09T12:52:09;99486.59;;;26.03;nan
82293;BME280;71892;14.836;105.234;2023-10-09T12:54:43;99500.94;;;26.06;nan
82293;BME280;71892;14.836;105.234;2023-10-09T12:57:12;99489.16;;;26.06;nan
82293;BME280;71892;14.836;105.234;2023-10-09T12:59:42;99508.22;;;26.06;nan
82293;BME280;71892;14.836;105.234;2023-10-09T13:02:17;99510.16;;;26.04;nan
82293;BME280;71892;14.836;105.234;2023-10-09T13:04:59;99513.78;;;26.04;nan
82293;BME280;71892;14.836;105.234;2023-10-09T13:07:26;99506.06;;;26.12;nan
82293;BME280;71892;14.836;105.234;2023-10-09T13:09:52;99521.53;;;26.12;nan
82293;BME280;71892;14.836;105.234;2023-10-09T13:12:35;99524.50;;;26.07;nan
82293;BME280;71892;14.836;105.234;2023-10-09T13:15:09;99528.25;;;26.05;nan
82293;BME280;71892;14.836;105.234;2023-10-09T13:17:38;99467.34;;;26.06;nan
82293;BME280;71892;14.836;105.234;2023-10-09T13:20:06;99530.53;;;26.14;nan
82293;BME280;71892;14.836;105.234;2023-10-09T13:22:39;99541.88;;;26.05;nan
82293;BME280;71892;14.836;105.234;2023-10-09T13:25:08;99520.31;;;26.00;nan
82293;BME280;71892;14.836;105.234;2023-10-09T13:27:45;99547.81;;;25.95;nan
82293;BME280;71892;14.836;105.234;2023-10-09T13:30:18;99546.13;;;25.93;nan
82293;BME280;71892;14.836;105.234;2023-10-09T13:32:49;99550.06;;;25.87;nan
82293;BME280;71892;14.836;105.234;2023-10-09T13:35:19;99562.13;;;25.82;nan
82293;BME280;71892;14.836;105.234;2023-10-09T13:37:46;99568.47;;;25.82;nan
82293;BME280;71892;14.836;105.234;2023-10-09T13:40:22;99571.03;;;25.85;nan
82293;BME280;71892;14.836;105.234;2023-10-09T13:42:55;99578.00;;;25.91;nan
82293;BME280;71892;14.836;105.234;2023-10-09T13:45:26;99572.19;;;25.99;nan
82293;BME280;71892;14.836;105.234;2023-10-09T13:47:56;99583.72;;;26.04;nan
82293;BME280;71892;14.836;105.234;2023-10-09T13:50:26;99586.69;;;25.99;nan
82293;BME280;71892;14.836;105.234;2023-10-09T13:52:58;99589.66;;;25.94;nan
82293;BME280;71892;14.836;105.234;2023-10-09T13:55:25;99585.28;;;25.90;nan
82293;BME280;71892;14.836;105.234;2023-10-09T13:58:09;99593.47;;;25.90;nan
82293;BME280;71892;14.836;105.234;2023-10-09T14:00:43;99590.84;;;25.89;nan
82293;BME280;71892;14.836;105.234;2023-10-09T14:03:12;99595.25;;;25.91;nan
82293;BME280;71892;14.836;105.234;2023-10-09T14:05:40;99597.81;;;25.94;nan
82293;BME280;71892;14.836;105.234;2023-10-09T14:08:23;99599.50;;;25.97;nan
82293;BME280;71892;14.836;105.234;2023-10-09T14:10:51;99596.59;;;26.00;nan
82293;BME280;71892;14.836;105.234;2023-10-09T14:13:18;99602.00;;;26.02;nan
82293;BME280;71892;14.836;105.234;2023-10-09T14:15:54;99608.91;;;26.09;nan
82293;BME280;71892;14.836;105.234;2023-10-09T14:18:24;99614.13;;;26.13;nan
82293;BME280;71892;14.836;105.234;2023-10-09T14:20:50;99615.06;;;26.12;nan
82293;BME280;71892;14.836;105.234;2023-10-09T14:23:22;99612.50;;;26.09;nan